Time;durP1;ratioP1;P1;durP2;ratioP2;P2;SDS_P1;SDS_P2;PMS_P1;PMS_P2;Temp;Humidity;BMP_temperature;BMP_pressure;BME280_temperature;BME280_humidity;BME280_pressure;Samples;Min_cycle;Max_cycle;Signal;HPM_P1;HPM_P2
2021/11/26 00:02:27;;;;;;;0.10;0.10;;;4.00;99.90;;;;;;5035619;28;20494;-84
2021/11/26 00:04:54;;;;;;;0.10;0.10;;;4.10;99.90;;;;;;5035103;28;20052;-84
2021/11/26 00:07:21;;;;;;;0.10;0.10;;;4.10;99.90;;;;;;5018795;28;20106;-84
2021/11/26 00:09:50;;;;;;;0.10;0.10;;;4.50;99.90;;;;;;5019657;28;20405;-83
2021/11/26 00:12:17;;;;;;;0.10;0.10;;;4.10;99.90;;;;;;5051784;28;20383;-84
2021/11/26 00:17:27;;;;;;;0.10;0.10;;;4.10;99.90;;;;;;5023501;28;20447;-83
2021/11/26 00:19:54;;;;;;;0.10;0.10;;;4.10;99.90;;;;;;5051484;28;20467;-83
2021/11/26 00:22:20;;;;;;;0.20;0.20;;;4.10;99.90;;;;;;5018633;28;20073;-84
2021/11/26 00:24:49;;;;;;;0.10;0.10;;;4.10;99.90;;;;;;5035441;28;20103;-84
2021/11/26 00:27:15;;;;;;;0.10;0.10;;;4.20;99.90;;;;;;5019622;28;20095;-84
2021/11/26 00:29:42;;;;;;;0.10;0.10;;;4.20;99.90;;;;;;5035439;28;20379;-83
2021/11/26 00:32:09;;;;;;;0.10;0.10;;;4.20;99.90;;;;;;5018526;28;20187;-84
2021/11/26 00:34:36;;;;;;;0.15;0.15;;;3.90;99.90;;;;;;5035278;28;20038;-83
2021/11/26 00:37:03;;;;;;;0.10;0.10;;;4.80;99.90;;;;;;5034959;28;20513;-84
2021/11/26 00:39:30;;;;;;;0.15;0.15;;;3.80;99.90;;;;;;5002303;28;20508;-83
2021/11/26 00:41:56;;;;;;;0.10;0.10;;;3.90;99.90;;;;;;5034914;28;20045;-84
2021/11/26 00:44:23;;;;;;;0.10;0.10;;;3.90;99.90;;;;;;5034251;28;20126;-84
2021/11/26 00:46:50;;;;;;;0.10;0.10;;;3.90;99.90;;;;;;5018847;28;20042;-84
2021/11/26 00:49:17;;;;;;;0.10;0.10;;;3.80;99.90;;;;;;5018106;28;20041;-83
2021/11/26 00:51:43;;;;;;;0.10;0.10;;;4.20;99.90;;;;;;5018287;28;20041;-84
2021/11/26 00:54:10;;;;;;;0.10;0.10;;;4.00;99.90;;;;;;5052339;28;20057;-84
2021/11/26 00:56:37;;;;;;;0.10;0.10;;;3.90;99.90;;;;;;5029331;28;20102;-84
2021/11/26 00:59:04;;;;;;;0.10;0.10;;;3.90;99.90;;;;;;5035235;28;20072;-84
2021/11/26 01:01:30;;;;;;;0.10;0.10;;;3.90;99.90;;;;;;5038170;28;20568;-84
2021/11/26 01:03:57;;;;;;;0.13;0.13;;;3.90;99.90;;;;;;5037927;28;20049;-84
2021/11/26 01:06:24;;;;;;;0.10;0.10;;;3.90;99.90;;;;;;5053851;28;20497;-84
2021/11/26 01:08:51;;;;;;;0.10;0.10;;;4.00;99.90;;;;;;5037870;28;20523;-84
2021/11/26 01:11:17;;;;;;;0.20;0.20;;;3.90;99.90;;;;;;5037736;28;20044;-84
2021/11/26 01:13:44;;;;;;;0.13;0.13;;;4.00;99.90;;;;;;5037646;28;20387;-84
2021/11/26 01:16:11;;;;;;;3.30;1.05;;;4.00;99.90;;;;;;5054203;28;20146;-84
2021/11/26 01:18:38;;;;;;;0.15;0.15;;;4.50;99.90;;;;;;5054297;28;20087;-83
2021/11/26 01:21:06;;;;;;;0.17;0.17;;;4.00;99.90;;;;;;5037304;28;20037;-84
2021/11/26 01:23:37;;;;;;;0.10;0.10;;;4.00;99.90;;;;;;5053317;28;20103;-84
2021/11/26 01:26:04;;;;;;;0.10;0.10;;;4.00;99.90;;;;;;5053877;28;20429;-84
2021/11/26 01:28:32;;;;;;;0.10;0.10;;;4.00;99.90;;;;;;5070096;28;20072;-84
2021/11/26 01:30:59;;;;;;;0.20;0.20;;;4.00;99.90;;;;;;5086913;28;20128;-84
2021/11/26 01:33:26;;;;;;;0.10;0.10;;;4.00;99.90;;;;;;5053504;28;20041;-83
2021/11/26 01:35:54;;;;;;;0.10;0.10;;;3.90;99.90;;;;;;5036947;28;20544;-83
2021/11/26 01:38:22;;;;;;;0.10;0.10;;;4.20;99.90;;;;;;5037012;28;20037;-84
2021/11/26 01:40:49;;;;;;;0.10;0.10;;;3.90;99.90;;;;;;5053450;28;20128;-84
2021/11/26 01:43:20;;;;;;;0.10;0.10;;;3.90;99.90;;;;;;5053905;28;20488;-84
2021/11/26 01:45:53;;;;;;;0.10;0.10;;;3.90;99.90;;;;;;5053473;28;20047;-84
2021/11/26 01:48:21;;;;;;;0.10;0.10;;;3.90;99.90;;;;;;5069461;28;20076;-84
2021/11/26 01:50:51;;;;;;;0.20;0.20;;;4.00;99.90;;;;;;5037073;28;20049;-83
2021/11/26 01:53:18;;;;;;;0.10;0.10;;;3.90;99.90;;;;;;5069572;28;20135;-84
2021/11/26 01:55:45;;;;;;;0.20;0.20;;;4.10;99.90;;;;;;5036323;28;20136;-84
2021/11/26 01:58:12;;;;;;;0.10;0.10;;;3.90;99.90;;;;;;5053042;28;20049;-84
2021/11/26 02:00:42;;;;;;;0.10;0.10;;;4.00;99.90;;;;;;5053077;28;20084;-86
2021/11/26 02:03:09;;;;;;;0.13;0.13;;;3.90;99.90;;;;;;5053905;28;20094;-83
2021/11/26 02:05:36;;;;;;;0.10;0.10;;;3.80;99.90;;;;;;5039183;28;20115;-84
2021/11/26 02:08:03;;;;;;;0.15;0.15;;;3.80;99.90;;;;;;5057443;28;20048;-84
2021/11/26 02:10:30;;;;;;;0.10;0.10;;;3.80;99.90;;;;;;5057125;28;20041;-84
2021/11/26 02:12:56;;;;;;;0.10;0.10;;;3.80;99.90;;;;;;5040950;28;20378;-83
2021/11/26 02:15:28;;;;;;;0.10;0.10;;;3.70;99.90;;;;;;5073684;28;20068;-83
2021/11/26 02:17:57;;;;;;;0.20;0.20;;;4.40;99.90;;;;;;5057326;28;20044;-83
2021/11/26 02:20:27;;;;;;;0.20;0.20;;;3.70;99.90;;;;;;5057244;28;20082;-83
2021/11/26 02:22:56;;;;;;;0.10;0.10;;;4.00;99.90;;;;;;5057279;28;20485;-83
2021/11/26 02:25:23;;;;;;;0.10;0.10;;;3.70;99.90;;;;;;5040681;28;20033;-84
2021/11/26 02:27:52;;;;;;;0.10;0.10;;;3.60;99.90;;;;;;5057578;28;20044;-84
2021/11/26 02:30:19;;;;;;;0.20;0.20;;;3.80;99.90;;;;;;5073807;28;20124;-83
2021/11/26 02:32:55;;;;;;;0.20;0.20;;;3.80;99.90;;;;;;5040338;28;20125;-84
2021/11/26 02:35:22;;;;;;;;;;;3.60;99.90;;;;;;5074019;28;20040;-84
2021/11/26 02:37:50;;;;;;;0.10;0.10;;;4.00;99.90;;;;;;5073061;28;19916;-83
2021/11/26 02:40:21;;;;;;;0.10;0.10;;;3.60;99.90;;;;;;5056806;28;20076;-84
2021/11/26 02:42:49;;;;;;;0.10;0.10;;;3.80;99.90;;;;;;5072887;28;20410;-83
2021/11/26 02:45:18;;;;;;;0.10;0.10;;;4.20;99.90;;;;;;5057057;28;20048;-84
2021/11/26 02:47:47;;;;;;;0.10;0.10;;;3.70;99.90;;;;;;5056433;28;20110;-83
2021/11/26 02:50:15;;;;;;;0.13;0.13;;;3.70;99.90;;;;;;5089544;28;20412;-83
2021/11/26 02:52:43;;;;;;;0.10;0.10;;;4.20;99.90;;;;;;5056378;28;20515;-83
2021/11/26 02:55:14;;;;;;;0.10;0.10;;;3.90;99.90;;;;;;5040571;28;20045;-83
2021/11/26 02:57:41;;;;;;;0.20;0.20;;;3.80;99.90;;;;;;5052045;28;20045;-84
2021/11/26 03:00:09;;;;;;;0.20;0.20;;;3.80;99.90;;;;;;5044806;28;20099;-84
2021/11/26 03:02:36;;;;;;;0.20;0.20;;;3.80;99.90;;;;;;5037080;28;20095;-83
2021/11/26 03:05:03;;;;;;;0.10;0.10;;;3.90;99.90;;;;;;5021598;28;20464;-84
2021/11/26 03:07:30;;;;;;;0.10;0.10;;;3.80;99.90;;;;;;5036464;28;20520;-84
2021/11/26 03:09:57;;;;;;;0.10;0.10;;;3.80;99.90;;;;;;5053142;28;20117;-84
2021/11/26 03:12:24;;;;;;;0.20;0.20;;;4.20;99.90;;;;;;5036483;28;20512;-83
2021/11/26 03:14:50;;;;;;;0.17;0.17;;;3.80;99.90;;;;;;5068479;28;20095;-84
2021/11/26 03:17:18;;;;;;;0.10;0.10;;;3.70;99.90;;;;;;5019608;28;20042;-84
2021/11/26 03:19:45;;;;;;;0.15;0.15;;;3.70;99.90;;;;;;5052932;28;20053;-84
2021/11/26 03:22:12;;;;;;;0.10;0.10;;;3.70;99.90;;;;;;5036201;28;20427;-83
2021/11/26 03:24:39;;;;;;;0.10;0.10;;;3.80;99.90;;;;;;5052560;28;20041;-83
2021/11/26 03:27:05;;;;;;;0.20;0.20;;;3.70;99.90;;;;;;5036921;28;20033;-83
2021/11/26 03:29:32;;;;;;;0.10;0.10;;;4.20;99.90;;;;;;5052548;28;20053;-83
2021/11/26 03:31:59;;;;;;;0.10;0.10;;;3.70;99.90;;;;;;5036050;28;20046;-84
2021/11/26 03:34:26;;;;;;;0.10;0.10;;;3.80;99.90;;;;;;5052780;28;20049;-84
2021/11/26 03:36:54;;;;;;;0.10;0.10;;;3.90;99.90;;;;;;5036122;28;20073;-84
2021/11/26 03:39:20;;;;;;;0.10;0.10;;;3.70;99.90;;;;;;5052209;28;20120;-83
2021/11/26 03:41:47;;;;;;;0.15;0.15;;;4.00;99.90;;;;;;5019712;28;20137;-83
2021/11/26 03:44:14;;;;;;;0.10;0.10;;;3.70;99.90;;;;;;5036055;28;20559;-84
2021/11/26 03:46:40;;;;;;;0.20;0.20;;;3.70;99.90;;;;;;5059840;28;20566;-84
2021/11/26 03:49:07;;;;;;;0.20;0.20;;;3.90;99.90;;;;;;5031137;28;20041;-84
2021/11/26 03:51:34;;;;;;;0.10;0.10;;;3.90;99.90;;;;;;5032730;28;20041;-84
2021/11/26 03:54:00;;;;;;;0.13;0.13;;;3.60;99.90;;;;;;5035943;28;20037;-84
2021/11/26 03:56:27;;;;;;;0.10;0.10;;;4.30;99.90;;;;;;5019846;28;20731;-83
2021/11/26 03:58:54;;;;;;;0.10;0.10;;;3.60;99.90;;;;;;5036225;28;20041;-84
2021/11/26 04:01:21;;;;;;;0.20;0.20;;;3.60;99.90;;;;;;5071976;28;20048;-83
2021/11/26 04:03:47;;;;;;;0.17;0.17;;;4.10;99.90;;;;;;5055212;28;20516;-84
2021/11/26 04:06:14;;;;;;;0.20;0.20;;;3.50;99.90;;;;;;5071647;28;20041;-84
2021/11/26 04:08:41;;;;;;;0.10;0.10;;;3.50;99.90;;;;;;5071541;28;20037;-83
2021/11/26 04:11:08;;;;;;;0.10;0.10;;;3.50;99.90;;;;;;5039104;28;20041;-83
2021/11/26 04:13:34;;;;;;;0.10;0.10;;;3.50;99.90;;;;;;5038826;28;20083;-84
2021/11/26 04:16:04;;;;;;;0.20;0.20;;;3.40;99.90;;;;;;5054753;28;20041;-84
2021/11/26 04:18:33;;;;;;;0.20;0.20;;;3.90;99.90;;;;;;5039386;28;20040;-84
2021/11/26 04:21:03;;;;;;;0.10;0.10;;;3.40;99.90;;;;;;5039909;28;20033;-83
2021/11/26 04:23:31;;;;;;;0.10;0.10;;;3.60;99.90;;;;;;5072081;28;20047;-83
2021/11/26 04:25:58;;;;;;;0.20;0.20;;;3.40;99.90;;;;;;5071516;28;20057;-83
2021/11/26 04:28:25;;;;;;;0.20;0.20;;;3.40;99.90;;;;;;5053952;28;20090;-83
2021/11/26 04:30:52;;;;;;;0.20;0.20;;;3.40;99.90;;;;;;5054894;28;20128;-84
2021/11/26 04:33:19;;;;;;;0.10;0.10;;;3.90;99.90;;;;;;5038682;28;20037;-84
2021/11/26 04:35:49;;;;;;;0.13;0.13;;;3.40;99.90;;;;;;5054486;28;20048;-84
2021/11/26 04:38:16;;;;;;;0.10;0.10;;;3.40;99.90;;;;;;5040016;28;20044;-83
2021/11/26 04:40:44;;;;;;;0.20;0.20;;;3.50;99.90;;;;;;5038446;28;20041;-83
2021/11/26 04:43:12;;;;;;;0.20;0.20;;;3.30;99.90;;;;;;5071117;28;20045;-83
2021/11/26 04:45:39;;;;;;;0.10;0.10;;;3.80;99.90;;;;;;5038470;28;20124;-84
2021/11/26 04:48:06;;;;;;;0.10;0.10;;;3.90;99.90;;;;;;5054176;28;20041;-84
2021/11/26 04:50:33;;;;;;;0.20;0.20;;;3.30;99.90;;;;;;5070988;28;20041;-84
2021/11/26 04:53:00;;;;;;;0.10;0.10;;;3.20;99.90;;;;;;5038091;28;20405;-83
2021/11/26 04:55:27;;;;;;;0.10;0.10;;;3.60;99.90;;;;;;5071360;28;20131;-84
2021/11/26 04:57:53;;;;;;;0.10;0.10;;;3.20;99.90;;;;;;5037742;28;20044;-83
2021/11/26 05:00:22;;;;;;;0.20;0.20;;;4.10;99.90;;;;;;5053881;28;20049;-83
2021/11/26 05:02:49;;;;;;;0.20;0.20;;;3.20;99.90;;;;;;5037520;28;20132;-84
2021/11/26 05:05:16;;;;;;;0.17;0.17;;;3.20;99.90;;;;;;5037642;28;20037;-84
2021/11/26 05:07:43;;;;;;;0.20;0.20;;;3.30;99.90;;;;;;5053717;28;20045;-83
2021/11/26 05:10:11;;;;;;;0.15;0.15;;;3.30;99.90;;;;;;5037780;28;20048;-84
2021/11/26 05:12:46;;;;;;;0.10;0.10;;;3.30;99.90;;;;;;5070549;28;20080;-84
2021/11/26 05:15:14;;;;;;;0.20;0.20;;;3.30;99.90;;;;;;5040407;28;20041;-83
2021/11/26 05:17:42;;;;;;;0.10;0.10;;;3.30;99.90;;;;;;5038206;28;20037;-84
2021/11/26 05:20:10;;;;;;;0.10;0.10;;;3.30;99.90;;;;;;5054199;28;20033;-84
2021/11/26 05:22:36;;;;;;;0.10;0.10;;;3.30;99.90;;;;;;5054355;28;20076;-83
2021/11/26 05:25:03;;;;;;;0.10;0.10;;;3.60;99.90;;;;;;5037673;28;20051;-84
2021/11/26 05:27:30;;;;;;;0.10;0.10;;;3.40;99.90;;;;;;5054006;28;20501;-83
2021/11/26 05:29:57;;;;;;;0.10;0.10;;;3.50;99.90;;;;;;5037458;28;20130;-83
2021/11/26 05:32:23;;;;;;;0.10;0.10;;;3.70;99.90;;;;;;5053968;28;20152;-83
2021/11/26 05:34:50;;;;;;;0.10;0.10;;;3.70;99.90;;;;;;5054194;28;20044;-83
2021/11/26 05:37:17;;;;;;;0.20;0.20;;;3.50;99.90;;;;;;5021802;28;20041;-83
2021/11/26 05:39:44;;;;;;;0.20;0.20;;;3.40;99.90;;;;;;5022009;28;20047;-84
2021/11/26 05:42:10;;;;;;;0.10;0.10;;;4.30;99.90;;;;;;5054161;28;20485;-84
2021/11/26 05:44:37;;;;;;;0.15;0.15;;;3.40;99.90;;;;;;5037402;28;20045;-83
2021/11/26 05:47:04;;;;;;;0.10;0.10;;;3.40;99.90;;;;;;5038346;28;20040;-83
2021/11/26 05:49:30;;;;;;;0.10;0.10;;;3.40;99.90;;;;;;5054326;28;20049;-84
2021/11/26 05:51:57;;;;;;;0.20;0.20;;;3.30;99.90;;;;;;5038566;28;20084;-84
2021/11/26 05:54:24;;;;;;;0.17;0.17;;;4.00;99.90;;;;;;5054043;28;20048;-83
2021/11/26 05:56:51;;;;;;;0.10;0.10;;;3.50;99.90;;;;;;5053712;28;20036;-84
2021/11/26 05:59:18;;;;;;;0.10;0.10;;;3.80;99.90;;;;;;5053536;28;20512;-83
2021/11/26 06:01:45;;;;;;;0.20;0.20;;;3.10;99.90;;;;;;5037281;28;20047;-83
2021/11/26 06:04:11;;;;;;;0.13;0.13;;;3.20;99.90;;;;;;5053786;28;20087;-83
2021/11/26 06:06:38;;;;;;;0.10;0.10;;;3.20;99.90;;;;;;5037244;28;20068;-83
2021/11/26 06:09:05;;;;;;;0.10;0.10;;;3.20;99.90;;;;;;5069555;28;20044;-83
2021/11/26 06:11:31;;;;;;;0.20;0.20;;;3.20;99.90;;;;;;5054187;28;20128;-83
2021/11/26 06:13:59;;;;;;;0.20;0.20;;;3.20;99.90;;;;;;5053313;28;20036;-83
2021/11/26 06:16:27;;;;;;;0.10;0.10;;;3.20;99.90;;;;;;5054406;28;20390;-83
2021/11/26 06:18:54;;;;;;;0.20;0.20;;;3.10;99.90;;;;;;5038216;28;20098;-83
2021/11/26 06:21:20;;;;;;;0.20;0.20;;;3.20;99.90;;;;;;5053237;28;20524;-83
2021/11/26 06:23:47;;;;;;;0.20;0.20;;;3.10;99.90;;;;;;5039189;28;20520;-83
2021/11/26 06:26:14;;;;;;;0.10;0.10;;;3.50;99.90;;;;;;5053660;28;20041;-83
2021/11/26 06:28:41;;;;;;;0.10;0.10;;;3.10;99.90;;;;;;5053743;28;20122;-83
2021/11/26 06:31:08;;;;;;;0.10;0.10;;;3.70;99.90;;;;;;5036470;28;20410;-83
2021/11/26 06:33:34;;;;;;;0.17;0.17;;;3.20;99.90;;;;;;5037070;28;20037;-83
2021/11/26 06:36:01;;;;;;;0.20;0.20;;;3.90;99.90;;;;;;5052967;28;20041;-83
2021/11/26 06:38:28;;;;;;;0.15;0.15;;;3.10;99.90;;;;;;5036495;28;20045;-84
2021/11/26 06:40:54;;;;;;;0.10;0.10;;;3.90;99.90;;;;;;5053169;28;20033;-83
2021/11/26 06:43:21;;;;;;;0.17;0.17;;;3.30;99.90;;;;;;5036612;28;20148;-83
2021/11/26 06:45:48;;;;;;;0.20;0.20;;;3.10;99.90;;;;;;5036324;28;20091;-83
2021/11/26 06:48:15;;;;;;;0.10;0.10;;;3.10;99.90;;;;;;5051235;28;20067;-83
2021/11/26 06:50:41;;;;;;;0.10;0.10;;;3.10;99.90;;;;;;5003290;28;20040;-83
2021/11/26 06:53:08;;;;;;;0.20;0.20;;;3.50;99.90;;;;;;5035485;28;20705;-83
2021/11/26 06:55:35;;;;;;;0.10;0.10;;;3.10;99.90;;;;;;5020671;28;20179;-82
2021/11/26 06:58:02;;;;;;;0.10;0.10;;;3.00;99.90;;;;;;5036628;28;20135;-83
2021/11/26 07:00:29;;;;;;;0.10;0.10;;;3.70;99.90;;;;;;5016212;28;20041;-83
2021/11/26 07:02:56;;;;;;;0.20;0.20;;;3.10;99.90;;;;;;5055540;28;20588;-83
2021/11/26 07:05:23;;;;;;;0.10;0.10;;;4.00;99.90;;;;;;5056541;28;20052;-83
2021/11/26 07:07:50;;;;;;;0.20;0.20;;;3.10;99.90;;;;;;5044711;28;20484;-83
2021/11/26 07:10:17;;;;;;;0.10;0.10;;;3.20;99.90;;;;;;5039720;28;20052;-83
2021/11/26 07:12:43;;;;;;;0.13;0.13;;;3.20;99.90;;;;;;5072275;28;20409;-83
2021/11/26 07:15:12;;;;;;;0.10;0.10;;;3.40;99.90;;;;;;5055571;28;20049;-82
2021/11/26 07:17:39;;;;;;;0.20;0.20;;;3.20;99.90;;;;;;5056107;28;20029;-83
2021/11/26 07:20:07;;;;;;;0.10;0.10;;;3.80;99.90;;;;;;5072018;28;20508;-84
2021/11/26 07:22:34;;;;;;;0.10;0.10;;;3.20;99.90;;;;;;5047833;28;20065;-83
2021/11/26 07:25:01;;;;;;;0.20;0.20;;;3.20;99.90;;;;;;5048409;28;20446;-84
2021/11/26 07:27:27;;;;;;;0.10;0.10;;;3.30;99.90;;;;;;5037051;28;20045;-83
2021/11/26 07:29:55;;;;;;;0.10;0.10;;;3.40;99.90;;;;;;5006607;28;20132;-84
2021/11/26 07:32:21;;;;;;;0.20;0.20;;;3.20;99.90;;;;;;5054043;28;20041;-83
2021/11/26 07:34:49;;;;;;;0.15;0.15;;;3.40;99.90;;;;;;5028751;28;20854;-83
2021/11/26 07:37:17;;;;;;;0.10;0.10;;;3.20;99.90;;;;;;5003931;28;20042;-84
2021/11/26 07:39:44;;;;;;;0.10;0.10;;;3.20;99.90;;;;;;5038450;28;20074;-83
2021/11/26 07:42:12;;;;;;;0.28;0.28;;;3.20;99.90;;;;;;5054836;28;20036;-83
2021/11/26 07:44:40;;;;;;;0.20;0.20;;;4.00;99.90;;;;;;5045741;28;20534;-83
2021/11/26 07:47:11;;;;;;;0.10;0.10;;;3.20;99.90;;;;;;5035244;28;20486;-83
2021/11/26 07:49:38;;;;;;;0.10;0.10;;;3.20;99.90;;;;;;5027698;28;20041;-83
2021/11/26 07:52:07;;;;;;;0.20;0.20;;;3.20;99.90;;;;;;5019021;28;20098;-83
2021/11/26 07:54:34;;;;;;;0.20;0.20;;;3.30;99.90;;;;;;5051900;28;20041;-84
2021/11/26 07:57:01;;;;;;;0.10;0.10;;;3.50;99.90;;;;;;5019497;28;20037;-83
2021/11/26 07:59:28;;;;;;;0.20;0.20;;;3.30;99.90;;;;;;5018605;28;20077;-84
2021/11/26 08:01:55;;;;;;;0.20;0.20;;;3.30;99.90;;;;;;5015664;28;20056;-83
2021/11/26 08:04:22;;;;;;;0.10;0.10;;;3.30;99.90;;;;;;5035169;28;20076;-84
2021/11/26 08:06:49;;;;;;;0.10;0.10;;;3.30;99.90;;;;;;5052035;28;20049;-84
2021/11/26 08:09:17;;;;;;;0.10;0.10;;;3.30;99.90;;;;;;5002986;28;20112;-84
2021/11/26 08:11:45;;;;;;;0.10;0.10;;;3.40;99.90;;;;;;5035077;28;20038;-84
2021/11/26 08:14:12;;;;;;;0.10;0.10;;;3.30;99.90;;;;;;5051054;28;20042;-84
2021/11/26 08:16:40;;;;;;;0.10;0.10;;;3.30;99.90;;;;;;5035320;28;20041;-84
2021/11/26 08:19:08;;;;;;;0.20;0.20;;;3.30;99.90;;;;;;5061149;28;20059;-84
2021/11/26 08:21:35;;;;;;;0.10;0.10;;;3.90;99.90;;;;;;5059934;28;20120;-84
2021/11/26 08:24:03;;;;;;;0.10;0.10;;;3.70;99.90;;;;;;5062816;28;20152;-84
2021/11/26 08:26:31;;;;;;;0.10;0.10;;;3.40;99.90;;;;;;5046117;28;20041;-84
2021/11/26 08:28:57;;;;;;;0.20;0.20;;;3.40;99.90;;;;;;5054653;28;20100;-84
2021/11/26 08:31:24;;;;;;;0.10;0.10;;;3.70;99.90;;;;;;5024951;28;20452;-83
2021/11/26 08:33:51;;;;;;;0.10;0.10;;;3.80;99.90;;;;;;5050593;28;20071;-83
2021/11/26 08:36:17;;;;;;;0.17;0.17;;;4.40;99.90;;;;;;5017977;28;20052;-83
2021/11/26 08:38:44;;;;;;;0.25;0.25;;;4.20;99.90;;;;;;5002513;28;20037;-84
2021/11/26 08:41:11;;;;;;;0.20;0.20;;;3.60;99.90;;;;;;5028976;28;20051;-83
2021/11/26 08:43:38;;;;;;;0.10;0.10;;;3.90;99.90;;;;;;5044395;28;20037;-84
2021/11/26 08:46:05;;;;;;;0.10;0.10;;;4.20;99.90;;;;;;5023396;28;20056;-83
2021/11/26 08:48:31;;;;;;;0.10;0.10;;;3.60;99.90;;;;;;5070487;28;20516;-83
2021/11/26 08:50:58;;;;;;;0.20;0.20;;;3.60;99.90;;;;;;5021379;28;20052;-84
2021/11/26 08:53:25;;;;;;;0.10;0.10;;;3.60;99.90;;;;;;5053533;28;20041;-83
2021/11/26 08:55:55;;;;;;;0.10;0.10;;;3.70;99.90;;;;;;5050852;28;20048;-84
2021/11/26 08:58:22;;;;;;;0.20;0.20;;;4.30;99.90;;;;;;5033984;28;20045;-84
2021/11/26 09:00:49;;;;;;;0.10;0.10;;;3.80;99.90;;;;;;5050406;28;20099;-83
2021/11/26 09:03:16;;;;;;;0.13;0.13;;;3.80;99.90;;;;;;5049975;28;20464;-83
2021/11/26 09:05:43;;;;;;;0.10;0.10;;;4.70;99.90;;;;;;5050373;28;20071;-83
2021/11/26 09:08:14;;;;;;;0.20;0.20;;;3.90;99.90;;;;;;5050183;28;20425;-83
2021/11/26 09:10:44;;;;;;;0.20;0.20;;;4.00;99.90;;;;;;5054801;28;20041;-83
2021/11/26 09:13:12;;;;;;;0.10;0.10;;;4.00;99.90;;;;;;5041808;28;20431;-84
2021/11/26 09:15:39;;;;;;;0.10;0.10;;;4.10;99.90;;;;;;5049668;28;20125;-83
2021/11/26 09:18:07;;;;;;;0.10;0.10;;;4.20;99.90;;;;;;5057805;28;20553;-84
2021/11/26 09:20:35;;;;;;;0.10;0.10;;;4.20;99.90;;;;;;5039656;28;20073;-83
2021/11/26 09:23:04;;;;;;;0.10;0.10;;;4.70;99.90;;;;;;5064047;28;20497;-84
2021/11/26 09:25:31;;;;;;;0.10;0.10;;;4.60;99.90;;;;;;5068769;28;20572;-83
2021/11/26 09:27:59;;;;;;;0.10;0.10;;;4.30;99.90;;;;;;5017152;28;20395;-83
2021/11/26 09:30:28;;;;;;;0.10;0.10;;;4.30;99.90;;;;;;5051452;28;20045;-84
2021/11/26 09:32:56;;;;;;;0.10;0.10;;;4.30;99.90;;;;;;5060272;28;20425;-84
2021/11/26 09:35:25;;;;;;;0.10;0.10;;;4.40;99.90;;;;;;5037358;28;20037;-84
2021/11/26 09:37:52;;;;;;;0.20;0.20;;;4.40;99.90;;;;;;5065302;28;20041;-85
2021/11/26 09:40:20;;;;;;;0.10;0.10;;;4.50;99.90;;;;;;5048263;28;20094;-83
2021/11/26 09:42:48;;;;;;;0.10;0.10;;;5.00;99.90;;;;;;5061934;28;20037;-84
2021/11/26 09:45:20;;;;;;;0.20;0.20;;;4.40;99.90;;;;;;5034125;28;20037;-84
2021/11/26 09:47:51;;;;;;;0.10;0.10;;;4.40;99.90;;;;;;5069010;28;20051;-84
2021/11/26 09:50:20;;;;;;;0.10;0.10;;;4.50;99.90;;;;;;5052774;28;20044;-84
2021/11/26 09:52:47;;;;;;;0.10;0.10;;;4.60;99.90;;;;;;5056707;28;20071;-83
2021/11/26 09:55:17;;;;;;;0.10;0.10;;;4.40;99.90;;;;;;5056189;28;20069;-84
2021/11/26 09:57:44;;;;;;;0.10;0.10;;;4.40;99.90;;;;;;5041201;28;20033;-85
2021/11/26 10:00:14;;;;;;;0.10;0.10;;;4.40;99.90;;;;;;5052452;28;20048;-85
2021/11/26 10:02:52;;;;;;;0.10;0.10;;;4.40;99.90;;;;;;5055570;28;20099;-85
2021/11/26 10:05:19;;;;;;;0.10;0.10;;;4.40;99.90;;;;;;5049595;28;20128;-83
2021/11/26 10:07:52;;;;;;;0.10;0.10;;;4.50;99.90;;;;;;5048556;28;20049;-85
2021/11/26 10:10:32;;;;;;;0.10;0.10;;;4.40;99.90;;;;;;5067253;28;20096;-84
2021/11/26 10:13:03;;;;;;;0.10;0.10;;;4.40;99.90;;;;;;5036562;28;20076;-84
2021/11/26 10:15:40;;;;;;;0.10;0.10;;;4.40;99.90;;;;;;5057975;28;20060;-84
2021/11/26 10:18:16;;;;;;;0.10;0.10;;;4.40;99.90;;;;;;5050144;28;20529;-84
2021/11/26 10:20:56;;;;;;;0.10;0.10;;;4.60;99.90;;;;;;5055379;28;20053;-84
2021/11/26 10:23:25;;;;;;;0.10;0.10;;;4.50;99.90;;;;;;5068777;28;20102;-84
2021/11/26 10:25:52;;;;;;;0.10;0.10;;;4.40;99.90;;;;;;5065302;28;20061;-84
2021/11/26 10:28:19;;;;;;;0.10;0.10;;;4.50;99.90;;;;;;5010006;28;20052;-83
2021/11/26 10:30:48;;;;;;;0.10;0.10;;;5.00;99.90;;;;;;5045852;28;20414;-82
2021/11/26 10:33:25;;;;;;;0.10;0.10;;;4.40;99.90;;;;;;5036437;28;20434;-82
2021/11/26 10:35:55;;;;;;;0.10;0.10;;;4.50;99.90;;;;;;5065763;28;20413;-84
2021/11/26 10:38:26;;;;;;;0.10;0.10;;;5.10;99.90;;;;;;5089394;28;20033;-83
2021/11/26 10:40:57;;;;;;;0.10;0.10;;;4.60;99.90;;;;;;5088749;28;20037;-84
2021/11/26 10:43:53;;;;;;;0.10;0.10;;;4.70;99.90;;;;;;5088918;28;20120;-83
2021/11/26 10:49:43;;;;;;;0.10;0.10;;;4.90;99.90;;;;;;5089436;28;20052;-82
2021/11/26 10:57:43;;;;;;;0.10;0.10;;;4.80;99.90;;;;;;5038082;28;20121;-82
2021/11/26 11:00:19;;;;;;;0.10;0.10;;;4.80;99.90;;;;;;5061688;28;20493;-82
2021/11/26 11:02:48;;;;;;;0.10;0.10;;;4.90;99.90;;;;;;5087042;28;20452;-81
2021/11/26 11:05:24;;;;;;;0.10;0.10;;;4.90;99.90;;;;;;5066572;28;20057;-81
2021/11/26 11:07:51;;;;;;;0.10;0.10;;;4.90;99.90;;;;;;5069092;28;20049;-82
2021/11/26 11:10:31;;;;;;;0.10;0.10;;;4.90;99.90;;;;;;5051980;28;20427;-82
2021/11/26 11:13:07;;;;;;;0.20;0.20;;;5.00;99.90;;;;;;5068818;28;20395;-82
2021/11/26 11:15:34;;;;;;;0.10;0.10;;;5.00;99.90;;;;;;5068449;28;20092;-82
2021/11/26 11:18:02;;;;;;;0.10;0.10;;;5.00;99.90;;;;;;5041186;28;20414;-82
2021/11/26 11:20:29;;;;;;;0.10;0.10;;;5.10;99.90;;;;;;5048462;28;20042;-82
2021/11/26 11:22:55;;;;;;;0.10;0.10;;;5.00;99.90;;;;;;5049045;28;20052;-83
2021/11/26 11:25:27;;;;;;;0.10;0.10;;;5.10;99.90;;;;;;5042434;28;20048;-82
2021/11/26 11:28:02;;;;;;;0.10;0.10;;;5.10;99.90;;;;;;5053191;28;20037;-82
2021/11/26 11:30:28;;;;;;;0.10;0.10;;;5.10;99.90;;;;;;5067325;28;20091;-82
2021/11/26 11:32:56;;;;;;;0.10;0.10;;;5.10;99.90;;;;;;5043934;28;20045;-82
2021/11/26 11:35:24;;;;;;;0.10;0.10;;;5.10;99.90;;;;;;5055484;28;20129;-82
2021/11/26 11:37:53;;;;;;;0.10;0.10;;;5.20;99.90;;;;;;5052311;28;20030;-82
2021/11/26 11:40:27;;;;;;;0.10;0.10;;;5.20;99.90;;;;;;5056491;28;20044;-82
2021/11/26 11:43:22;;;;;;;0.10;0.10;;;5.20;99.90;;;;;;5032669;28;20081;-82
2021/11/26 11:46:01;;;;;;;0.10;0.10;;;5.20;99.90;;;;;;5048263;28;20037;-82
2021/11/26 11:48:34;;;;;;;0.10;0.10;;;5.30;99.90;;;;;;5048626;28;20057;-82
2021/11/26 11:51:01;;;;;;;0.10;0.10;;;5.50;99.90;;;;;;5062513;28;20038;-82
2021/11/26 11:53:34;;;;;;;0.10;0.10;;;5.40;99.90;;;;;;5051706;28;20409;-82
2021/11/26 11:56:07;;;;;;;0.13;0.13;;;5.70;99.90;;;;;;5068313;28;20153;-82
2021/11/26 11:58:52;;;;;;;0.10;0.10;;;5.50;99.90;;;;;;5050653;28;20045;-82
2021/11/26 12:01:22;;;;;;;0.10;0.10;;;5.60;99.90;;;;;;5050505;28;20068;-82
2021/11/26 12:03:52;;;;;;;0.10;0.10;;;5.60;99.90;;;;;;5053694;28;20057;-82
2021/11/26 12:06:18;;;;;;;0.10;0.10;;;5.60;99.90;;;;;;5041510;28;20060;-82
2021/11/26 12:08:48;;;;;;;0.10;0.10;;;5.90;99.90;;;;;;5035489;28;20406;-82
2021/11/26 12:11:27;;;;;;;0.10;0.10;;;5.50;99.90;;;;;;5067128;28;20037;-82
2021/11/26 12:14:26;;;;;;;0.13;0.13;;;5.50;99.90;;;;;;5088405;28;20040;-82
2021/11/26 12:19:42;;;;;;;0.10;0.10;;;5.50;99.90;;;;;;5051296;28;20103;-82
2021/11/26 12:22:21;;;;;;;0.10;0.10;;;5.40;99.90;;;;;;5049136;28;20067;-82
2021/11/26 12:24:51;;;;;;;0.10;0.10;;;5.50;99.90;;;;;;5055395;28;20519;-82
2021/11/26 12:27:24;;;;;;;0.10;0.10;;;5.60;99.90;;;;;;5024413;28;20045;-83
2021/11/26 12:29:52;;;;;;;0.10;0.10;;;5.50;99.90;;;;;;5072515;28;20044;-84
2021/11/26 12:32:24;;;;;;;0.20;0.20;;;5.50;99.90;;;;;;5071202;28;20037;-83
2021/11/26 12:34:57;;;;;;;0.10;0.10;;;5.60;99.90;;;;;;5088591;28;20045;-83
2021/11/26 12:37:27;;;;;;;0.10;0.10;;;5.80;99.90;;;;;;5081806;28;20035;-83
2021/11/26 12:39:57;;;;;;;0.10;0.10;;;5.50;99.90;;;;;;5088263;28;20072;-83
2021/11/26 12:42:25;;;;;;;0.10;0.10;;;5.70;99.90;;;;;;5086141;28;20037;-82
2021/11/26 12:45:05;;;;;;;0.10;0.10;;;5.50;99.90;;;;;;5039279;28;20048;-84
2021/11/26 12:47:58;;;;;;;0.10;0.10;;;5.40;99.90;;;;;;5055937;28;20075;-83
2021/11/26 12:53:14;;;;;;;0.20;0.20;;;5.40;99.90;;;;;;5056975;28;20037;-83
2021/11/26 12:55:59;;;;;;;0.10;0.10;;;5.40;99.90;;;;;;5087551;28;20405;-83
2021/11/26 12:58:29;;;;;;;0.10;0.10;;;5.40;99.90;;;;;;5052749;28;20041;-83
2021/11/26 13:01:04;;;;;;;0.10;0.10;;;5.40;99.90;;;;;;5054821;28;20511;-84
2021/11/26 13:03:40;;;;;;;0.20;0.20;;;5.30;99.90;;;;;;5069010;28;20091;-84
2021/11/26 13:06:07;;;;;;;0.10;0.10;;;5.30;99.90;;;;;;5036887;28;20080;-84
2021/11/26 13:08:34;;;;;;;0.10;0.10;;;5.30;99.90;;;;;;5030827;28;20195;-83
2021/11/26 13:11:05;;;;;;;0.10;0.10;;;5.30;99.90;;;;;;5035259;28;20120;-83
2021/11/26 13:13:34;;;;;;;0.10;0.10;;;5.30;99.90;;;;;;5086167;28;20041;-83
2021/11/26 13:16:00;;;;;;;0.10;0.10;;;5.40;99.90;;;;;;5085968;28;20040;-83
2021/11/26 13:18:29;;;;;;;0.10;0.10;;;5.20;99.90;;;;;;5036986;28;20040;-82
2021/11/26 13:21:00;;;;;;;0.10;0.10;;;5.20;99.90;;;;;;5070017;28;20033;-82
2021/11/26 13:23:30;;;;;;;0.10;0.10;;;5.40;99.90;;;;;;5071019;28;20037;-82